Latest Weather Observations for Campbelltown

IDN60901

Issued at 7:55 pm EST Friday 29 August 2014 (issued every 10 minutes, with the page automatically refreshed every 10 minutes)

About weather observations | Map of Sydney area stations | Latest observations for Sydney area | Other Formats
Station Details ID: 068257 Name: CAMPBELLTOWN (MOUNT ANNAN) Lat: -34.06 Lon: 150.77 Height: 112.0 m
Data from the previous 72 hours. | See also: Recent months at Campbelltown
Date/Time
EST
Tmp

°C
App
Tmp
°C
Dew
Point
°C
Rel
Hum
%
Delta-T

°C
Wind Press
QNH
hPa
Press
MSL
hPa
Rain
since
9 am
mm
Dir
 
Spd
km/h
Gust
km/h
Spd
kts
Gust
kts
29/07:30pm 11.3 9.6 8.5 83 1.4 S 7 17 4 9 - - 0.2
29/07:00pm 11.4 10.0 9.0 85 1.2 S 6 9 3 5 - - 0.2
29/06:30pm 11.9 10.1 7.8 76 2.0 S 7 13 4 7 - - 0.0
29/06:00pm 13.2 10.7 8.1 71 2.5 S 11 20 6 11 - - 0.0
29/05:30pm 13.7 10.8 8.1 69 2.8 S 13 24 7 13 - - 0.0
29/05:00pm 14.9 11.7 8.4 65 3.3 SSE 15 24 8 13 - - 0.0
29/04:30pm 15.8 12.3 7.0 56 4.4 S 15 30 8 16 - - 0.0
29/04:00pm 16.6 13.8 8.6 59 4.1 S 13 22 7 12 - - 0.0
29/03:30pm 16.0 13.1 8.2 60 4.0 S 13 22 7 12 - - 0.0
29/03:00pm 16.5 13.2 9.4 63 3.7 S 17 33 9 18 - - 0.0
29/02:30pm 16.9 15.0 9.1 60 4.1 SSW 9 19 5 10 - - 0.0
29/02:00pm 16.2 13.1 8.7 61 3.9 SSW 15 26 8 14 - - 0.0
29/01:30pm 14.1 11.6 9.7 75 2.3 SSW 13 20 7 11 - - 0.0
29/01:00pm 16.0 12.7 8.2 60 4.0 S 15 33 8 18 - - 0.0
29/12:30pm 15.6 13.0 9.3 66 3.3 S 13 24 7 13 - - 0.0
29/12:00pm 14.5 11.5 9.3 71 2.7 S 15 32 8 17 - - 0.0
29/11:30am 17.0 13.9 7.1 52 5.0 SSW 13 20 7 11 - - 0.0
29/11:00am 16.9 13.2 7.8 55 4.6 SSW 17 30 9 16 - - 0.0
29/10:30am 14.9 12.3 7.9 63 3.5 SSW 11 22 6 12 - - 0.0
29/10:00am 15.5 12.6 8.0 61 3.8 SSW 13 22 7 12 - - 0.0
29/09:30am 14.9 12.2 9.1 68 3.0 SSW 13 19 7 10 - - 0.0
29/09:00am 13.6 11.0 9.3 75 2.2 SSW 13 20 7 11 - - 0.4
29/08:30am 12.1 10.6 9.3 83 1.4 SSW 7 11 4 6 - - 0.4
29/08:00am 10.6 9.2 8.9 89 0.8 SSW 6 11 3 6 - - 0.4
29/07:30am 8.8 7.1 8.5 98 0.1 SW 7 11 4 6 - - 0.2
29/07:00am 6.9 5.0 6.8 99 0.0 SSW 6 9 3 5 - - 0.2
29/06:30am 6.4 4.2 6.3 99 0.0 SSW 7 9 4 5 - - 0.2
29/06:00am 6.1 4.0 6.0 99 0.0 SSW 6 7 3 4 - - 0.2
29/05:30am 5.8 4.1 5.7 99 0.0 S 4 6 2 3 - - 0.2
29/05:00am 5.9 3.8 5.6 98 0.1 S 6 7 3 4 - - 0.2
29/04:30am 6.2 4.2 6.1 99 0.0 S 6 9 3 5 - - 0.2
29/04:00am 6.1 4.0 5.8 98 0.1 SSW 6 9 3 5 - - 0.2
29/03:30am 6.4 4.3 5.8 96 0.3 S 6 7 3 4 - - 0.2
29/03:00am 7.0 5.1 6.6 97 0.2 S 6 7 3 4 - - 0.2
29/02:30am 6.6 4.5 5.7 94 0.4 S 6 7 3 4 - - 0.2
29/02:00am 7.4 5.4 6.3 93 0.5 S 6 9 3 5 - - 0.2
29/01:30am 8.0 5.6 6.9 93 0.5 SSW 9 13 5 7 - - 0.2
29/01:00am 7.4 5.3 6.5 94 0.4 SSW 7 9 4 5 - - 0.2
29/12:30am 7.6 5.7 6.7 94 0.4 S 6 7 3 4 - - 0.2
29/12:00am 7.9 6.0 6.7 92 0.6 S 6 7 3 4 - - 0.2
 
Date/Time
EST
Tmp

°C
App
Tmp
°C
Dew
Point
°C
Rel
Hum
%
Delta-T

°C
Wind Press
QNH
hPa
Press
MSL
hPa
Rain
since
9 am
mm
Dir
 
Spd
km/h
Gust
km/h
Spd
kts
Gust
kts
28/11:30pm 8.4 6.4 6.9 90 0.7 SSW 7 11 4 6 - - 0.2
28/11:00pm 9.0 7.0 7.3 89 0.8 SSW 7 13 4 7 - - 0.2
28/10:30pm 9.0 7.0 7.3 89 0.8 SSW 7 9 4 5 - - 0.2
28/10:00pm 9.4 7.5 7.7 89 0.8 S 7 13 4 7 - - 0.2
28/09:30pm 8.8 7.1 7.6 92 0.6 S 6 7 3 4 - - 0.2
28/09:00pm 9.0 7.3 7.6 91 0.7 S 6 9 3 5 - - 0.2
28/08:30pm 8.9 7.2 7.4 90 0.7 SSW 6 7 3 4 - - 0.2
28/08:00pm 9.4 7.7 7.7 89 0.8 SSW 6 9 3 5 - - 0.2
28/07:30pm 9.6 7.9 7.7 88 0.9 S 6 7 3 4 - - 0.2
28/07:00pm 10.2 9.6 7.6 84 1.3 CALM 0 0 0 0 - - 0.2
28/06:30pm 11.5 10.2 7.8 78 1.8 S 4 6 2 3 - - 0.2
28/06:00pm 12.7 10.9 7.8 72 2.4 S 7 13 4 7 - - 0.2
28/05:30pm 14.0 11.8 8.0 67 3.0 S 9 19 5 10 - - 0.0
28/05:00pm 14.7 12.4 7.3 61 3.7 S 9 19 5 10 - - 0.0
28/04:30pm 15.9 13.6 7.4 57 4.2 S 9 24 5 13 - - 0.0
28/04:00pm 16.0 14.0 8.5 61 3.8 SSE 9 19 5 10 - - 0.0
28/03:30pm 15.9 13.3 7.9 59 4.0 SSE 11 24 6 13 - - 0.0
28/03:00pm 17.8 15.3 8.1 53 5.0 S 11 20 6 11 - - 0.0
28/02:30pm 16.8 15.1 9.7 63 3.7 S 9 22 5 12 - - 0.0
28/02:00pm 15.5 14.2 11.1 75 2.4 S 9 17 5 9 - - 0.0
28/01:30pm 17.1 14.7 8.5 57 4.4 SE 11 24 6 13 - - 0.0
28/01:00pm 18.6 14.7 8.8 53 5.1 SE 19 26 10 14 - - 0.0
28/12:30pm 17.3 13.9 7.6 53 4.9 SSE 15 30 8 16 - - 0.0
28/12:00pm 18.2 15.2 7.9 51 5.3 SSE 13 26 7 14 - - 0.0
28/11:30am 17.6 14.8 8.5 55 4.7 S 13 26 7 14 - - 0.0
28/11:00am 18.3 16.5 10.7 61 4.1 S 11 30 6 16 - - 0.0
28/10:30am 17.1 13.9 8.5 57 4.4 SSE 15 24 8 13 - - 0.0
28/10:00am 17.2 14.5 10.3 64 3.7 S 15 24 8 13 - - 0.0
28/09:30am 16.3 14.8 11.9 75 2.4 S 11 20 6 11 - - 0.0
28/09:00am 14.5 13.0 11.8 84 1.5 S 11 20 6 11 - - 0.4
28/08:30am 13.0 10.8 10.9 87 1.1 SSW 13 20 7 11 - - 0.4
28/08:00am 12.2 10.6 10.1 87 1.1 SSW 9 20 5 11 - - 0.4
28/07:30am 11.7 8.3 9.3 85 1.2 SSW 17 26 9 14 - - 0.4
28/07:00am 11.1 8.9 9.4 89 0.9 SSW 11 20 6 11 - - 0.4
28/06:30am 11.0 8.3 8.9 87 1.0 SSW 13 22 7 12 - - 0.4
28/06:00am 11.2 9.0 9.5 89 0.9 SSW 11 17 6 9 - - 0.4
28/05:30am 11.0 9.6 9.6 91 0.7 SSW 7 13 4 7 - - 0.4
28/05:00am 11.3 9.5 9.4 88 1.0 SSW 9 15 5 8 - - 0.4
28/04:30am 11.0 9.2 9.3 89 0.9 SSW 9 17 5 9 - - 0.4
28/04:00am 10.9 8.7 9.2 89 0.9 SSW 11 20 6 11 - - 0.4
28/03:30am 10.9 8.3 9.3 90 0.8 SSW 13 22 7 12 - - 0.4
28/03:00am 10.9 8.7 9.3 90 0.8 S 11 17 6 9 - - 0.4
28/02:30am 11.0 8.4 9.4 90 0.8 SSW 13 20 7 11 - - 0.2
28/02:00am 10.9 7.9 9.2 89 0.9 SSW 15 24 8 13 - - 0.2
28/01:30am 11.0 8.2 8.6 85 1.2 SSW 13 22 7 12 - - 0.2
28/01:00am 10.8 8.0 8.4 85 1.2 SSW 13 20 7 11 - - 0.2
28/12:30am 10.5 7.9 7.9 84 1.3 SSW 11 17 6 9 - - 0.2
28/12:00am 9.9 7.7 7.7 86 1.1 S 9 13 5 7 - - 0.2
 
Date/Time
EST
Tmp

°C
App
Tmp
°C
Dew
Point
°C
Rel
Hum
%
Delta-T

°C
Wind Press
QNH
hPa
Press
MSL
hPa
Rain
since
9 am
mm
Dir
 
Spd
km/h
Gust
km/h
Spd
kts
Gust
kts
27/11:30pm 10.1 7.9 7.7 85 1.2 SSW 9 11 5 6 - - 0.2
27/11:00pm 9.8 7.9 7.7 87 1.0 SSW 7 11 4 6 - - 0.2
27/10:30pm 9.7 7.5 7.8 88 0.9 SSW 9 11 5 6 - - 0.0
27/10:00pm 8.5 6.5 7.1 91 0.7 SSW 7 9 4 5 - - 0.0
27/09:30pm 9.5 8.9 7.3 86 1.0 CALM 0 0 0 0 - - 0.0
27/09:00pm 11.1 9.3 7.8 80 1.6 SSW 7 11 4 6 - - 0.0
27/08:30pm 10.9 8.7 8.0 82 1.4 SSW 9 13 5 7 - - 0.0
27/08:00pm 11.4 9.3 8.4 82 1.5 SSW 9 19 5 10 - - 0.0
27/07:30pm 11.4 9.0 8.8 84 1.3 S 11 17 6 9 - - 0.0
27/07:00pm 11.7 9.8 8.9 83 1.4 S 9 15 5 8 - - 0.0
27/06:30pm 12.2 10.3 9.2 82 1.5 S 9 17 5 9 - - 0.0
27/06:00pm 12.4 10.2 9.2 81 1.6 S 11 19 6 10 - - 0.0
27/05:30pm 13.4 11.3 9.8 79 1.9 S 11 24 6 13 - - 0.0
27/05:00pm 14.2 11.3 9.6 74 2.4 S 15 35 8 19 - - 0.0
27/04:30pm 15.0 12.7 10.4 74 2.4 S 13 24 7 13 - - 0.0
27/04:00pm 15.1 13.3 10.7 75 2.3 SSE 11 22 6 12 - - 0.0
27/03:30pm 16.1 13.2 11.1 72 2.7 S 17 35 9 19 - - 0.0
27/03:00pm 17.5 15.4 11.1 66 3.5 S 13 26 7 14 - - 0.0
27/02:30pm 17.8 15.2 10.7 63 3.8 S 15 32 8 17 - - 0.0
27/02:00pm 18.3 15.9 9.9 58 4.5 SSE 13 26 7 14 - - 0.0
27/01:30pm 18.3 15.4 10.9 62 4.0 S 17 35 9 19 - - 0.0
27/01:00pm 17.5 14.6 11.1 66 3.5 S 17 26 9 14 - - 0.0
27/12:30pm 18.0 15.7 10.6 62 4.0 S 13 26 7 14 - - 0.0
27/12:00pm 18.0 15.0 10.6 62 4.0 S 17 33 9 18 - - 0.0
27/11:30am 18.0 16.4 12.9 72 2.9 S 13 24 7 13 - - 0.0
27/11:00am 17.5 15.5 12.8 74 2.6 S 15 28 8 15 - - 0.0
27/10:30am 17.0 14.4 12.1 73 2.7 S 17 28 9 15 - - 0.0
27/10:00am 15.7 15.5 13.7 88 1.1 S 7 17 4 9 - - 0.0
27/09:30am 13.7 12.8 12.6 93 0.6 SSW 9 13 5 7 - - 0.0
27/09:00am 13.0 12.0 12.2 95 0.4 SSW 9 13 5 7 - - 44.8
27/08:30am 12.4 11.9 12.2 99 0.1 S 6 7 3 4 - - 44.6
27/08:00am 11.9 12.1 11.7 99 0.1 S 2 7 1 4 - - 43.8
27/07:30am 11.6 11.7 11.4 99 0.1 S 2 6 1 3 - - 43.6
27/07:00am 11.4 10.4 11.1 98 0.2 S 7 13 4 7 - - 43.2
27/06:30am 11.5 10.2 11.2 98 0.2 SSW 9 11 5 6 - - 43.0
27/06:00am 11.6 10.3 11.4 99 0.1 SSW 9 17 5 9 - - 43.0
27/05:30am 11.7 10.8 11.5 99 0.1 S 7 13 4 7 - - 42.6
27/05:00am 11.7 10.4 11.4 98 0.2 S 9 17 5 9 - - 42.4
27/04:30am 11.9 11.0 11.4 97 0.3 S 7 15 4 8 - - 41.8
27/04:00am 12.4 11.3 11.8 96 0.3 S 9 17 5 9 - - 41.0
27/03:30am 12.5 11.4 12.0 97 0.3 S 9 20 5 11 - - 40.8
27/03:00am 12.1 10.9 11.6 97 0.3 S 9 17 5 9 - - 40.0
27/02:30am 11.6 10.7 11.3 98 0.2 S 7 11 4 6 - - 40.0
27/02:00am 11.9 10.3 11.6 98 0.2 S 11 20 6 11 - - 39.8
27/01:30am 12.2 11.1 12.0 99 0.1 S 9 20 5 11 - - 39.8
27/01:00am 11.5 10.6 11.3 99 0.1 S 7 11 4 6 - - 39.8
27/12:30am 11.6 10.7 11.4 99 0.1 SSW 7 11 4 6 - - 39.8
27/12:00am 11.8 11.0 11.6 99 0.1 SSW 7 11 4 6 - - 39.8
 
Date/Time
EST
Tmp

°C
App
Tmp
°C
Dew
Point
°C
Rel
Hum
%
Delta-T

°C
Wind Press
QNH
hPa
Press
MSL
hPa
Rain
since
9 am
mm
Dir
 
Spd
km/h
Gust
km/h
Spd
kts
Gust
kts
26/11:30pm 12.1 12.3 11.9 99 0.1 ESE 2 7 1 4 - - 39.6
26/11:00pm 11.9 12.1 11.7 99 0.1 S 2 9 1 5 - - 37.6
26/10:30pm 12.5 11.9 12.3 99 0.1 NE 7 11 4 6 - - 30.0
26/10:00pm 12.4 12.3 12.2 99 0.1 S 4 7 2 4 - - 24.4
26/09:30pm 12.6 12.6 12.4 99 0.1 S 4 9 2 5 - - 21.8
26/09:00pm 12.5 11.5 12.3 99 0.1 S 9 19 5 10 - - 21.6
26/08:30pm 11.9 10.7 11.7 99 0.1 S 9 17 5 9 - - 21.0
26/08:00pm 12.5 11.1 12.3 99 0.1 SSW 11 15 6 8 - - 20.0

Latest Capital City Observations: Canberra | Sydney | Melbourne | Brisbane | Adelaide | Perth | Hobart | Darwin

Other Formats:

Comma delimited format used in spreadsheet applications
http://www.bom.gov.au/fwo/IDN60901/IDN60901.94757.axf

JavaScript Object Notation format (JSON) in row-major order
http://www.bom.gov.au/fwo/IDN60901/IDN60901.94757.json